createdAt,value
2018-09-03T00:01:02.496Z,7.93
2018-09-03T00:03:30.687Z,8.77
2018-09-03T00:05:58.796Z,8.70
2018-09-03T00:08:26.977Z,8.40
2018-09-03T00:10:55.100Z,7.40
2018-09-03T00:13:23.232Z,8.77
2018-09-03T00:15:51.323Z,7.53
2018-09-03T00:18:19.427Z,7.87
2018-09-03T00:20:47.506Z,8.73
2018-09-03T00:23:15.611Z,7.43
2018-09-03T00:25:43.833Z,7.60
2018-09-03T00:28:11.960Z,7.80
2018-09-03T00:30:40.077Z,8.30
2018-09-03T00:33:13.487Z,7.60
2018-09-03T00:35:46.846Z,8.60
2018-09-03T00:38:20.343Z,8.65
2018-09-03T00:40:53.769Z,8.48
2018-09-03T00:43:27.267Z,8.67
2018-09-03T00:46:00.787Z,8.00
2018-09-03T00:48:28.901Z,7.23
2018-09-03T00:50:57.047Z,9.17
2018-09-03T00:53:25.126Z,7.87
2018-09-03T00:55:53.307Z,7.83
2018-09-03T00:58:21.465Z,9.03
2018-09-03T01:00:49.594Z,8.73
2018-09-03T01:03:17.709Z,8.30
2018-09-03T01:05:45.870Z,9.70
2018-09-03T01:08:14.021Z,8.50
2018-09-03T01:10:42.128Z,8.73
2018-09-03T01:13:10.235Z,9.17
2018-09-03T01:15:38.373Z,9.23
2018-09-03T01:18:06.496Z,9.50
2018-09-03T01:20:34.611Z,8.80
2018-09-03T01:23:02.739Z,9.98
2018-09-03T01:25:30.862Z,10.47
2018-09-03T01:27:58.993Z,11.07
2018-09-03T01:30:27.123Z,11.13
2018-09-03T01:32:55.256Z,10.43
2018-09-03T01:35:23.376Z,10.37
2018-09-03T01:37:51.532Z,11.03
2018-09-03T01:40:19.675Z,10.33
2018-09-03T01:42:47.870Z,11.20
2018-09-03T01:45:15.947Z,10.00
2018-09-03T01:47:44.071Z,11.30
2018-09-03T01:50:12.167Z,11.43
2018-09-03T01:52:40.313Z,10.60
2018-09-03T01:55:08.426Z,11.27
2018-09-03T01:57:36.548Z,10.93
2018-09-03T02:00:04.875Z,9.97
2018-09-03T02:02:33.016Z,8.80
2018-09-03T02:05:01.121Z,10.40
2018-09-03T02:07:29.199Z,10.20
2018-09-03T02:09:57.307Z,10.10
2018-09-03T02:12:25.400Z,11.10
2018-09-03T02:14:53.539Z,11.13
2018-09-03T02:17:21.648Z,9.45
2018-09-03T02:19:49.744Z,10.23
2018-09-03T02:22:17.861Z,10.88
2018-09-03T02:24:45.978Z,10.23
2018-09-03T02:27:14.094Z,10.05
2018-09-03T02:29:42.203Z,10.78
2018-09-03T02:32:10.456Z,9.95
2018-09-03T02:34:38.573Z,10.10
2018-09-03T02:37:06.675Z,11.70
2018-09-03T02:39:34.748Z,10.77
2018-09-03T02:42:02.842Z,9.70
2018-09-03T02:44:31.040Z,11.50
2018-09-03T02:46:59.183Z,11.33
2018-09-03T02:49:27.323Z,10.90
2018-09-03T02:51:55.481Z,12.00
2018-09-03T02:54:23.590Z,9.50
2018-09-03T02:56:51.744Z,10.57
2018-09-03T02:59:19.924Z,11.85
2018-09-03T03:01:48.012Z,11.43
2018-09-03T03:04:16.135Z,11.83
2018-09-03T03:06:44.238Z,11.50
2018-09-03T03:09:12.326Z,12.50
2018-09-03T03:11:40.595Z,10.35
2018-09-03T03:14:08.912Z,11.93
2018-09-03T03:16:37.008Z,12.37
2018-09-03T03:19:05.331Z,12.67
2018-09-03T03:21:33.477Z,15.80
2018-09-03T03:24:01.638Z,12.70
2018-09-03T03:26:29.755Z,13.07
2018-09-03T03:28:57.916Z,12.43
2018-09-03T03:31:26.069Z,11.90
2018-09-03T03:33:54.622Z,13.32
2018-09-03T03:36:22.795Z,14.95
2018-09-03T03:38:51.040Z,13.97
2018-09-03T03:41:19.205Z,14.13
2018-09-03T03:43:47.359Z,12.60
2018-09-03T03:46:15.481Z,16.37
2018-09-03T03:48:43.705Z,12.93
2018-09-03T03:51:11.822Z,13.07
2018-09-03T03:53:39.946Z,12.60
2018-09-03T03:56:08.269Z,12.87
2018-09-03T03:58:36.400Z,12.90
2018-09-03T04:01:04.544Z,11.47
2018-09-03T04:03:32.637Z,12.90
2018-09-03T04:06:00.732Z,13.50
2018-09-03T04:08:28.828Z,12.00
2018-09-03T04:10:56.935Z,12.80
2018-09-03T04:13:25.101Z,12.53
2018-09-03T04:15:53.234Z,12.40
2018-09-03T04:18:21.339Z,11.78
2018-09-03T04:20:49.487Z,13.40
2018-09-03T04:23:17.667Z,12.13
2018-09-03T04:25:45.705Z,12.20
2018-09-03T04:28:13.858Z,14.30
2018-09-03T04:30:41.973Z,11.63
2018-09-03T04:33:10.180Z,11.27
2018-09-03T04:35:38.298Z,9.67
2018-09-03T04:38:06.451Z,25.10
2018-09-03T04:40:34.520Z,12.47
2018-09-03T04:43:02.658Z,16.20
2018-09-03T04:45:30.796Z,13.07
2018-09-03T04:47:58.916Z,13.67
2018-09-03T04:50:26.988Z,10.23
2018-09-03T04:52:55.080Z,11.83
2018-09-03T04:55:23.422Z,10.10
2018-09-03T04:57:51.448Z,11.90
2018-09-03T05:00:19.542Z,13.60
2018-09-03T05:02:47.634Z,9.40
2018-09-03T05:05:15.758Z,11.70
2018-09-03T05:07:43.888Z,10.40
2018-09-03T05:10:11.963Z,9.73
2018-09-03T05:12:40.140Z,8.70
2018-09-03T05:15:08.306Z,10.70
2018-09-03T05:17:36.402Z,9.60
2018-09-03T05:20:04.564Z,11.03
2018-09-03T05:22:32.697Z,8.53
2018-09-03T05:25:00.789Z,11.97
2018-09-03T05:27:28.889Z,9.60
2018-09-03T05:29:57.004Z,10.00
2018-09-03T05:32:25.108Z,11.23
2018-09-03T05:34:53.211Z,11.60
2018-09-03T05:37:21.363Z,12.05
2018-09-03T05:39:49.486Z,8.90
2018-09-03T05:42:17.604Z,8.93
2018-09-03T05:44:45.687Z,10.13
2018-09-03T05:47:13.835Z,10.80
2018-09-03T05:49:41.973Z,9.30
2018-09-03T05:52:10.100Z,8.93
2018-09-03T05:54:38.215Z,8.47
2018-09-03T05:57:06.295Z,8.63
2018-09-03T05:59:34.467Z,10.10
2018-09-03T06:02:02.545Z,10.55
2018-09-03T06:04:30.654Z,10.08
2018-09-03T06:06:58.750Z,8.77
2018-09-03T06:09:26.842Z,9.87
2018-09-03T06:11:54.910Z,8.77
2018-09-03T06:14:24.071Z,9.00
2018-09-03T06:16:52.201Z,9.75
2018-09-03T06:19:20.326Z,9.65
2018-09-03T06:21:48.462Z,10.95
2018-09-03T06:24:16.603Z,15.00
2018-09-03T06:26:44.692Z,13.48
2018-09-03T06:29:12.816Z,14.87
2018-09-03T06:31:40.931Z,12.93
2018-09-03T06:34:09.060Z,13.45
2018-09-03T06:36:37.153Z,12.75
2018-09-03T06:39:07.002Z,11.80
2018-09-03T06:41:35.052Z,14.43
2018-09-03T06:44:03.144Z,12.06
2018-09-03T06:46:31.237Z,12.40
2018-09-03T06:48:59.395Z,12.60
2018-09-03T06:51:27.507Z,11.57
2018-09-03T06:53:55.613Z,12.23
2018-09-03T06:56:23.735Z,11.63
2018-09-03T06:58:51.858Z,11.63
2018-09-03T07:01:20.247Z,11.17
2018-09-03T07:03:48.411Z,11.85
2018-09-03T07:06:16.542Z,11.67
2018-09-03T07:08:44.624Z,12.00
2018-09-03T07:11:12.913Z,11.40
2018-09-03T07:13:41.077Z,11.75
2018-09-03T07:16:09.197Z,13.00
2018-09-03T07:18:37.373Z,13.30
2018-09-03T07:21:05.502Z,11.70
2018-09-03T07:23:33.624Z,13.03
2018-09-03T07:26:01.706Z,11.43
2018-09-03T07:28:29.835Z,13.38
2018-09-03T07:30:58.440Z,11.47
2018-09-03T07:33:26.560Z,12.10
2018-09-03T07:35:54.669Z,13.60
2018-09-03T07:38:22.804Z,12.00
2018-09-03T07:40:50.957Z,12.40
2018-09-03T07:43:19.069Z,11.90
2018-09-03T07:45:47.194Z,13.00
2018-09-03T07:48:15.372Z,13.77
2018-09-03T07:50:43.506Z,11.80
2018-09-03T07:53:11.604Z,11.70
2018-09-03T07:55:39.734Z,14.33
2018-09-03T07:58:08.323Z,14.83
2018-09-03T08:00:36.387Z,12.60
2018-09-03T08:03:04.490Z,12.27
2018-09-03T08:05:32.654Z,13.22
2018-09-03T08:08:00.784Z,12.00
2018-09-03T08:10:28.941Z,13.00
2018-09-03T08:12:57.068Z,13.72
2018-09-03T08:15:25.202Z,11.73
2018-09-03T08:17:53.307Z,11.80
2018-09-03T08:20:21.452Z,11.43
2018-09-03T08:22:49.615Z,12.68
2018-09-03T08:25:17.727Z,12.37
2018-09-03T08:27:45.860Z,12.90
2018-09-03T08:30:14.014Z,12.30
2018-09-03T08:32:42.212Z,11.83
2018-09-03T08:35:10.514Z,14.33
2018-09-03T08:37:38.773Z,12.50
2018-09-03T08:40:06.924Z,12.17
2018-09-03T08:42:35.065Z,10.97
2018-09-03T08:45:03.184Z,10.70
2018-09-03T08:47:31.510Z,11.73
2018-09-03T08:49:59.629Z,10.83
2018-09-03T08:52:27.795Z,13.33
2018-09-03T08:54:55.891Z,11.50
2018-09-03T08:57:24.059Z,11.27
2018-09-03T08:59:52.221Z,15.33
2018-09-03T09:02:20.384Z,11.67
2018-09-03T09:04:48.492Z,12.43
2018-09-03T09:07:16.771Z,10.80
2018-09-03T09:09:44.888Z,10.18
2018-09-03T09:12:13.064Z,11.97
2018-09-03T09:14:41.191Z,10.88
2018-09-03T09:17:09.354Z,11.25
2018-09-03T09:19:37.457Z,11.57
2018-09-03T09:22:05.617Z,12.63
2018-09-03T09:24:33.844Z,10.70
2018-09-03T09:27:01.914Z,10.73
2018-09-03T09:29:30.104Z,11.13
2018-09-03T09:31:58.274Z,13.33
2018-09-03T09:34:26.383Z,10.80
2018-09-03T09:36:54.500Z,13.50
2018-09-03T09:39:22.595Z,14.00
2018-09-03T09:41:50.680Z,11.20
2018-09-03T09:44:18.824Z,11.63
2018-09-03T09:46:46.911Z,11.70
2018-09-03T09:49:15.007Z,11.20
2018-09-03T09:51:43.170Z,14.93
2018-09-03T09:54:11.399Z,13.53
2018-09-03T09:56:39.622Z,11.23
2018-09-03T09:59:07.773Z,12.00
2018-09-03T10:01:37.501Z,12.47
2018-09-03T10:04:05.798Z,12.88
2018-09-03T10:06:34.011Z,9.57
2018-09-03T10:09:02.118Z,10.47
2018-09-03T10:11:30.351Z,14.40
2018-09-03T10:13:58.880Z,13.98
2018-09-03T10:16:28.108Z,12.40
2018-09-03T10:18:56.227Z,13.07
2018-09-03T10:21:24.343Z,12.40
2018-09-03T10:23:53.216Z,13.13
2018-09-03T10:26:21.295Z,12.50
2018-09-03T10:28:49.447Z,12.77
2018-09-03T10:31:17.547Z,13.57
2018-09-03T10:33:45.759Z,11.80
2018-09-03T10:36:13.878Z,12.30
2018-09-03T10:38:42.030Z,12.83
2018-09-03T10:41:10.196Z,13.73
2018-09-03T10:43:38.315Z,12.37
2018-09-03T10:46:06.458Z,16.95
2018-09-03T10:48:34.575Z,11.45
2018-09-03T10:51:02.701Z,12.50
2018-09-03T10:53:30.879Z,12.27
2018-09-03T10:55:59.018Z,13.70
2018-09-03T10:58:27.166Z,13.40
2018-09-03T11:00:55.355Z,13.17
2018-09-03T11:03:23.486Z,14.17
2018-09-03T11:05:51.630Z,13.70
2018-09-03T11:08:19.994Z,13.33
2018-09-03T11:10:48.157Z,15.13
2018-09-03T11:13:16.268Z,13.17
2018-09-03T11:15:44.379Z,13.80
2018-09-03T11:18:12.548Z,13.90
2018-09-03T11:20:40.710Z,16.13
2018-09-03T11:23:08.831Z,14.40
2018-09-03T11:25:36.923Z,12.53
2018-09-03T11:28:05.518Z,12.90
2018-09-03T11:30:33.659Z,14.70
2018-09-03T11:33:02.996Z,14.05
2018-09-03T11:35:31.143Z,13.50
2018-09-03T11:37:59.249Z,14.20
2018-09-03T11:40:27.363Z,13.43
2018-09-03T11:42:55.437Z,14.90
2018-09-03T11:45:23.997Z,14.18
2018-09-03T11:47:52.156Z,19.03
2018-09-03T11:50:20.862Z,18.37
2018-09-03T11:52:49.092Z,14.17
2018-09-03T11:55:17.286Z,14.20
2018-09-03T11:57:45.447Z,15.07
2018-09-03T12:00:19.622Z,15.23
2018-09-03T12:02:47.758Z,15.87
2018-09-03T12:05:15.872Z,14.78
2018-09-03T12:07:43.987Z,15.00
2018-09-03T12:10:13.088Z,15.13
2018-09-03T12:12:41.220Z,15.30
2018-09-03T12:15:15.064Z,14.03
2018-09-03T12:17:43.211Z,13.47
2018-09-03T12:21:15.353Z,12.37
2018-09-03T12:23:44.059Z,11.57
2018-09-03T12:26:12.319Z,12.03
2018-09-03T12:28:40.459Z,12.60
2018-09-03T12:31:09.000Z,15.50
2018-09-03T12:33:37.089Z,14.80
2018-09-03T12:36:05.863Z,14.97
2018-09-03T12:38:34.445Z,13.90
2018-09-03T12:41:02.599Z,16.60
2018-09-03T12:43:30.706Z,14.80
2018-09-03T12:46:01.250Z,15.77
2018-09-03T12:48:29.972Z,14.73
2018-09-03T12:50:58.445Z,17.00
2018-09-03T12:53:26.542Z,16.60
2018-09-03T12:55:54.645Z,16.37
2018-09-03T12:58:22.729Z,16.87
2018-09-03T13:00:51.004Z,17.80
2018-09-03T13:03:19.040Z,16.30
2018-09-03T13:05:47.148Z,16.05
2018-09-03T13:08:15.527Z,16.53
2018-09-03T13:10:43.739Z,17.50
2018-09-03T13:13:11.838Z,17.60
2018-09-03T13:15:39.941Z,17.50
2018-09-03T13:18:08.087Z,16.13
2018-09-03T13:20:36.214Z,16.60
2018-09-03T13:23:04.362Z,16.67
2018-09-03T13:25:32.471Z,16.85
2018-09-03T13:28:00.593Z,16.15
2018-09-03T13:30:28.678Z,17.03
2018-09-03T13:32:56.831Z,16.27
2018-09-03T13:35:25.240Z,16.40
2018-09-03T13:37:53.349Z,16.03
2018-09-03T13:40:21.443Z,16.00
2018-09-03T13:42:49.571Z,16.53
2018-09-03T13:45:17.656Z,16.00
2018-09-03T13:47:45.783Z,16.93
2018-09-03T13:50:13.877Z,17.40
2018-09-03T13:52:42.099Z,16.87
2018-09-03T13:55:10.241Z,15.87
2018-09-03T13:57:38.404Z,15.67
2018-09-03T14:00:07.669Z,17.13
2018-09-03T14:02:35.782Z,16.13
2018-09-03T14:05:03.892Z,16.70
2018-09-03T14:07:31.969Z,16.57
2018-09-03T14:10:00.093Z,14.93
2018-09-03T14:12:28.200Z,16.67
2018-09-03T14:14:56.284Z,17.37
2018-09-03T14:17:24.402Z,16.53
2018-09-03T14:19:52.560Z,17.27
2018-09-03T14:22:20.960Z,17.03
2018-09-03T14:24:49.000Z,17.53
2018-09-03T14:27:17.103Z,16.90
2018-09-03T14:29:45.224Z,17.13
2018-09-03T14:32:13.351Z,16.00
2018-09-03T14:34:41.532Z,16.60
2018-09-03T14:37:09.688Z,18.17
2018-09-03T14:39:37.755Z,16.95
2018-09-03T14:42:05.876Z,16.80
2018-09-03T14:44:34.008Z,17.47
2018-09-03T14:47:02.115Z,17.37
2018-09-03T14:49:30.242Z,16.87
2018-09-03T14:51:58.333Z,17.92
2018-09-03T14:54:26.475Z,17.77
2018-09-03T14:56:54.577Z,16.00
2018-09-03T14:59:22.680Z,16.50
2018-09-03T15:01:50.815Z,17.23
2018-09-03T15:04:18.992Z,17.60
2018-09-03T15:06:47.035Z,17.73
2018-09-03T15:09:15.148Z,17.47
2018-09-03T15:11:43.232Z,17.30
2018-09-03T15:14:11.328Z,17.70
2018-09-03T15:16:39.427Z,16.20
2018-09-03T15:19:07.508Z,15.27
2018-09-03T15:21:36.020Z,13.20
2018-09-03T15:24:04.716Z,13.50
2018-09-03T15:26:32.886Z,12.20
2018-09-03T15:29:00.933Z,11.97
2018-09-03T15:31:29.373Z,12.77
2018-09-03T15:33:57.544Z,12.90
2018-09-03T15:36:25.894Z,12.90
2018-09-03T15:38:53.973Z,12.07
2018-09-03T15:41:22.094Z,11.70
2018-09-03T15:43:50.188Z,12.47
2018-09-03T15:46:18.435Z,13.30
2018-09-03T15:48:46.570Z,12.45
2018-09-03T15:51:14.715Z,12.10
2018-09-03T15:53:42.813Z,11.37
2018-09-03T15:56:10.928Z,11.90
2018-09-03T15:58:39.085Z,10.53
2018-09-03T16:01:07.236Z,11.23
2018-09-03T16:03:35.399Z,12.50
2018-09-03T16:06:03.519Z,11.50
2018-09-03T16:08:31.588Z,11.50
2018-09-03T16:10:59.733Z,13.07
2018-09-03T16:13:27.843Z,11.33
2018-09-03T16:15:55.990Z,11.80
2018-09-03T16:18:24.137Z,11.73
2018-09-03T16:20:52.381Z,11.78
2018-09-03T16:23:20.951Z,11.40
2018-09-03T16:25:49.055Z,14.53
2018-09-03T16:28:17.220Z,11.20
2018-09-03T16:30:45.336Z,13.13
2018-09-03T16:33:13.506Z,14.03
2018-09-03T16:35:41.624Z,10.53
2018-09-03T16:38:09.784Z,12.53
2018-09-03T16:40:37.917Z,10.43
2018-09-03T16:43:06.419Z,10.13
2018-09-03T16:45:35.048Z,10.87
2018-09-03T16:48:03.178Z,11.07
2018-09-03T16:50:32.149Z,10.00
2018-09-03T16:53:00.264Z,10.13
2018-09-03T16:55:28.397Z,9.90
2018-09-03T16:57:56.542Z,10.70
2018-09-03T17:00:24.678Z,11.53
2018-09-03T17:02:52.824Z,9.70
2018-09-03T17:05:20.927Z,9.97
2018-09-03T17:07:49.028Z,8.83
2018-09-03T17:10:17.214Z,11.17
2018-09-03T17:12:45.337Z,9.30
2018-09-03T17:15:13.480Z,8.90
2018-09-03T17:17:41.583Z,9.10
2018-09-03T17:20:09.764Z,10.27
2018-09-03T17:22:37.886Z,9.43
2018-09-03T17:25:06.090Z,10.00
2018-09-03T17:27:34.310Z,9.13
2018-09-03T17:30:02.424Z,8.40
2018-09-03T17:32:30.531Z,9.43
2018-09-03T17:34:58.743Z,9.60
2018-09-03T17:37:26.880Z,9.83
2018-09-03T17:39:54.983Z,10.17
2018-09-03T17:42:23.123Z,8.97
2018-09-03T17:44:51.233Z,10.30
2018-09-03T17:47:19.372Z,8.00
2018-09-03T17:49:47.584Z,9.63
2018-09-03T17:52:15.659Z,9.47
2018-09-03T17:54:43.820Z,8.37
2018-09-03T17:57:11.981Z,9.13
2018-09-03T17:59:40.158Z,8.67
2018-09-03T18:02:08.288Z,9.10
2018-09-03T18:04:36.442Z,8.30
2018-09-03T18:07:04.573Z,8.17
2018-09-03T18:09:32.746Z,10.23
2018-09-03T18:12:00.850Z,9.77
2018-09-03T18:14:28.982Z,8.30
2018-09-03T18:16:57.105Z,9.17
2018-09-03T18:19:25.243Z,8.63
2018-09-03T18:21:53.495Z,11.40
2018-09-03T18:24:21.545Z,9.38
2018-09-03T18:26:49.660Z,8.57
2018-09-03T18:29:17.855Z,8.30
2018-09-03T18:31:45.971Z,8.93
2018-09-03T18:34:14.123Z,8.47
2018-09-03T18:36:42.274Z,8.67
2018-09-03T18:39:10.501Z,9.70
2018-09-03T18:41:38.666Z,8.47
2018-09-03T18:44:06.799Z,8.93
2018-09-03T18:49:09.335Z,7.97
2018-09-03T18:51:37.445Z,9.40
2018-09-03T18:54:05.589Z,10.27
2018-09-03T18:56:33.734Z,8.23
2018-09-03T18:59:01.877Z,8.43
2018-09-03T19:01:30.056Z,9.50
2018-09-03T19:03:58.182Z,12.44
2018-09-03T19:06:26.300Z,7.80
2018-09-03T19:08:54.439Z,8.40
2018-09-03T19:11:22.588Z,11.30
2018-09-03T19:13:51.227Z,8.83
2018-09-03T19:16:19.328Z,10.67
2018-09-03T19:18:47.460Z,7.77
2018-09-03T19:21:15.606Z,9.00
2018-09-03T19:23:43.753Z,9.23
2018-09-03T19:26:11.855Z,8.47
2018-09-03T19:28:39.967Z,9.60
2018-09-03T19:31:08.101Z,9.70
2018-09-03T19:33:36.235Z,11.83
2018-09-03T19:36:04.339Z,9.53
2018-09-03T19:38:32.511Z,9.43
2018-09-03T19:41:00.605Z,9.03
2018-09-03T19:43:28.678Z,8.30
2018-09-03T19:45:56.824Z,8.57
2018-09-03T19:48:24.987Z,10.23
2018-09-03T19:50:53.063Z,10.20
2018-09-03T19:53:21.205Z,10.33
2018-09-03T19:55:49.363Z,12.17
2018-09-03T19:58:17.512Z,9.77
2018-09-03T20:00:45.623Z,11.10
2018-09-03T20:03:13.739Z,11.60
2018-09-03T20:05:41.876Z,9.70
2018-09-03T20:08:10.095Z,9.27
2018-09-03T20:10:38.998Z,9.20
2018-09-03T20:13:07.082Z,10.43
2018-09-03T20:15:35.196Z,8.23
2018-09-03T20:18:03.306Z,9.77
2018-09-03T20:20:31.423Z,10.23
2018-09-03T20:22:59.543Z,9.07
2018-09-03T20:25:27.656Z,7.83
2018-09-03T20:27:55.779Z,9.70
2018-09-03T20:30:23.868Z,11.57
2018-09-03T20:32:51.973Z,7.50
2018-09-03T20:35:20.075Z,9.63
2018-09-03T20:37:48.207Z,8.50
2018-09-03T20:40:16.343Z,8.50
2018-09-03T20:42:44.688Z,9.73
2018-09-03T20:45:12.810Z,8.83
2018-09-03T20:47:40.939Z,7.42
2018-09-03T20:50:09.079Z,8.78
2018-09-03T20:52:37.209Z,10.93
2018-09-03T20:55:05.404Z,8.90
2018-09-03T20:57:33.535Z,9.03
2018-09-03T21:00:01.672Z,8.70
2018-09-03T21:02:29.767Z,10.40
2018-09-03T21:04:57.899Z,7.80
2018-09-03T21:07:26.012Z,8.70
2018-09-03T21:09:54.082Z,7.87
2018-09-03T21:12:22.181Z,8.37
2018-09-03T21:14:55.956Z,9.07
2018-09-03T21:17:24.080Z,7.47
2018-09-03T21:19:52.231Z,8.60
2018-09-03T21:22:20.337Z,9.20
2018-09-03T21:24:48.448Z,8.20
2018-09-03T21:27:16.548Z,7.63
2018-09-03T21:29:44.644Z,7.57
2018-09-03T21:32:12.745Z,8.47
2018-09-03T21:34:40.867Z,7.00
2018-09-03T21:37:08.965Z,9.20
2018-09-03T21:39:37.089Z,7.53
2018-09-03T21:42:05.593Z,7.30
2018-09-03T21:44:33.729Z,7.20
2018-09-03T21:47:01.911Z,7.20
2018-09-03T21:49:30.015Z,6.87
2018-09-03T21:51:58.125Z,7.27
2018-09-03T21:54:26.250Z,7.12
2018-09-03T21:56:54.388Z,8.13
2018-09-03T21:59:22.521Z,7.37
2018-09-03T22:01:50.603Z,6.12
2018-09-03T22:04:18.708Z,7.40
2018-09-03T22:06:46.801Z,6.83
2018-09-03T22:09:14.903Z,6.80
2018-09-03T22:11:43.028Z,6.87
2018-09-03T22:14:11.106Z,6.30
2018-09-03T22:16:39.196Z,6.40
2018-09-03T22:19:07.310Z,7.17
2018-09-03T22:21:35.444Z,6.87
2018-09-03T22:24:03.554Z,7.35
2018-09-03T22:26:31.678Z,7.13
2018-09-03T22:28:59.786Z,7.45
2018-09-03T22:31:27.936Z,6.33
2018-09-03T22:38:50.744Z,6.50
2018-09-03T22:41:18.835Z,7.60
2018-09-03T22:43:46.944Z,6.78
2018-09-03T22:46:15.065Z,8.37
2018-09-03T22:48:43.154Z,7.72
2018-09-03T22:51:11.267Z,7.75
2018-09-03T22:53:39.370Z,8.05
2018-09-03T22:56:07.487Z,7.30
2018-09-03T22:58:35.691Z,7.90
2018-09-03T23:01:03.806Z,6.87
2018-09-03T23:03:31.933Z,8.20
2018-09-03T23:06:00.072Z,7.77
2018-09-03T23:08:28.279Z,7.83
2018-09-03T23:10:56.375Z,7.17
2018-09-03T23:13:24.504Z,7.47
2018-09-03T23:15:53.436Z,7.03
2018-09-03T23:18:22.959Z,7.20
2018-09-03T23:20:51.082Z,7.63
2018-09-03T23:23:19.214Z,6.70
2018-09-03T23:25:47.983Z,7.70
2018-09-03T23:28:16.128Z,8.30
2018-09-03T23:30:44.237Z,9.10
2018-09-03T23:33:12.743Z,9.90
2018-09-03T23:35:40.916Z,8.63
2018-09-03T23:38:09.010Z,9.75
2018-09-03T23:40:37.146Z,9.60
2018-09-03T23:43:05.247Z,8.48
2018-09-03T23:45:33.428Z,7.65
2018-09-03T23:48:01.561Z,10.23
2018-09-03T23:50:29.676Z,9.27
2018-09-03T23:52:57.839Z,10.82
2018-09-03T23:55:25.946Z,9.40
2018-09-03T23:57:54.029Z,9.10
